createdAt,value
2018-08-12T00:04:53.358Z,86.599998
2018-08-12T00:09:55.626Z,86.199997
2018-08-12T00:14:57.908Z,86.099998
2018-08-12T00:20:00.191Z,85.599998
2018-08-12T00:25:02.682Z,81
2018-08-12T00:30:04.890Z,78
2018-08-12T00:35:07.065Z,77.699997
2018-08-12T00:40:09.429Z,78.400002
2018-08-12T00:45:11.641Z,77.300003
2018-08-12T00:50:13.988Z,76
2018-08-12T00:55:16.169Z,78
2018-08-12T01:00:18.509Z,76.400002
2018-08-12T01:05:20.874Z,77.199997
2018-08-12T01:10:23.183Z,79.800003
2018-08-12T01:15:25.391Z,81.300003
2018-08-12T01:20:27.691Z,83.5
2018-08-12T01:25:30.049Z,83.099998
2018-08-12T01:30:32.275Z,82.900002
2018-08-12T01:35:34.569Z,82.599998
2018-08-12T01:40:36.923Z,84.099998
2018-08-12T01:45:39.274Z,82.599998
2018-08-12T01:50:41.437Z,80.699997
2018-08-12T01:55:43.853Z,80.300003
2018-08-12T02:00:46.007Z,80.199997
2018-08-12T02:05:48.419Z,80.5
2018-08-12T02:10:50.696Z,80
2018-08-12T02:15:52.838Z,79.199997
2018-08-12T02:20:55.177Z,78.5
2018-08-12T02:25:57.588Z,78.199997
2018-08-12T02:30:59.780Z,77.300003
2018-08-12T02:36:02.109Z,77.5
2018-08-12T02:41:04.332Z,76.5
2018-08-12T02:46:06.706Z,78.800003
2018-08-12T02:51:09.075Z,77.300003
2018-08-12T02:56:11.274Z,78.199997
2018-08-12T03:01:13.609Z,77.900002
2018-08-12T03:06:15.766Z,77
2018-08-12T03:11:18.254Z,77.199997
2018-08-12T03:16:20.469Z,77.300003
2018-08-12T03:21:22.742Z,76.699997
2018-08-12T03:26:25.078Z,76.099998
2018-08-12T03:31:27.449Z,74
2018-08-12T03:36:29.619Z,74.900002
2018-08-12T03:41:31.938Z,74.5
2018-08-12T03:46:34.251Z,73.400002
2018-08-12T03:51:36.520Z,73.599998
2018-08-12T03:56:38.858Z,73.099998
2018-08-12T04:01:41.082Z,72.400002
2018-08-12T04:06:43.397Z,71.400002
2018-08-12T04:11:45.695Z,70.5
2018-08-12T04:16:47.948Z,69.900002
2018-08-12T04:21:50.303Z,70.300003
2018-08-12T04:26:52.560Z,69.900002
2018-08-12T04:31:54.864Z,70.800003
2018-08-12T04:36:57.203Z,68.900002
2018-08-12T04:41:59.434Z,68.800003
2018-08-12T04:47:01.727Z,68.800003
2018-08-12T04:52:04.184Z,68.599998
2018-08-12T04:57:06.458Z,67.599998
2018-08-12T05:02:09.260Z,67.900002
2018-08-12T05:07:10.922Z,67.5
2018-08-12T05:12:13.217Z,67.5
2018-08-12T05:17:15.565Z,67.300003
2018-08-12T05:22:17.826Z,69.099998
2018-08-12T05:27:20.044Z,69.099998
2018-08-12T05:32:22.382Z,69.5
2018-08-12T05:37:24.762Z,69.5
2018-08-12T05:42:27.073Z,67.599998
2018-08-12T05:47:29.371Z,68.300003
2018-08-12T05:52:31.597Z,68.400002
2018-08-12T05:57:33.874Z,68.900002
2018-08-12T06:02:36.167Z,69.199997
2018-08-12T06:07:38.505Z,66.199997
2018-08-12T06:12:40.704Z,66.900002
2018-08-12T06:17:43.055Z,64
2018-08-12T06:22:45.449Z,61.799999
2018-08-12T06:27:47.647Z,61.5
2018-08-12T06:32:49.927Z,61.900002
2018-08-12T06:37:52.385Z,60.900002
2018-08-12T06:42:54.433Z,62.700001
2018-08-12T06:47:56.744Z,60.700001
2018-08-12T06:52:59.001Z,60.5
2018-08-12T06:58:01.360Z,60.599998
2018-08-12T07:03:03.743Z,60.900002
2018-08-12T07:08:05.995Z,60.299999
2018-08-12T07:13:08.347Z,61.5
2018-08-12T07:18:10.709Z,62.200001
2018-08-12T07:23:12.949Z,60.5
2018-08-12T07:28:15.117Z,60.5
2018-08-12T07:33:17.555Z,57.799999
2018-08-12T07:38:22.683Z,58.200001
2018-08-12T07:43:21.959Z,58.599998
2018-08-12T07:48:24.379Z,54.700001
2018-08-12T07:53:26.662Z,55.5
2018-08-12T07:58:28.899Z,52.299999
2018-08-12T08:03:31.228Z,52.5
2018-08-12T08:08:33.525Z,52.5
2018-08-12T08:13:35.722Z,49.599998
2018-08-12T08:18:38.067Z,47.599998
2018-08-12T08:23:40.298Z,49.400002
2018-08-12T08:28:42.670Z,48.200001
2018-08-12T08:33:45.166Z,48
2018-08-12T08:38:47.325Z,45.599998
2018-08-12T08:43:50.813Z,45.200001
2018-08-12T08:48:51.910Z,44.099998
2018-08-12T08:53:54.160Z,44.299999
2018-08-12T08:58:56.476Z,42.799999
2018-08-12T09:03:58.768Z,41.700001
2018-08-12T09:09:01.236Z,40.900002
2018-08-12T09:14:03.564Z,39.099998
2018-08-12T09:19:05.563Z,37.400002
2018-08-12T09:24:07.881Z,35.299999
2018-08-12T09:29:10.194Z,36.400002
2018-08-12T09:34:12.492Z,34.099998
2018-08-12T09:39:14.871Z,33.5
2018-08-12T09:44:17.131Z,32.200001
2018-08-12T09:49:21.139Z,33.099998
2018-08-12T09:54:21.673Z,30.5
2018-08-12T09:59:23.943Z,31.4
2018-08-12T10:04:26.371Z,31.200001
2018-08-12T10:09:28.542Z,29.200001
2018-08-12T10:14:30.924Z,29.4
2018-08-12T10:19:33.143Z,28.299999
2018-08-12T10:24:35.473Z,29.1
2018-08-12T10:29:37.680Z,30.700001
2018-08-12T10:34:40.107Z,29.4
2018-08-12T10:39:42.346Z,27.4
2018-08-12T10:44:44.770Z,25.9
2018-08-12T10:49:46.921Z,26
2018-08-12T10:54:49.220Z,27.1
2018-08-12T10:59:51.575Z,25.4
2018-08-12T11:04:53.755Z,24.700001
2018-08-12T11:09:56.054Z,25.200001
2018-08-12T11:14:58.386Z,25.9
2018-08-12T11:20:00.704Z,22.9
2018-08-12T11:25:02.948Z,22.299999
2018-08-12T11:30:05.337Z,22.200001
2018-08-12T11:35:08.683Z,23.6
2018-08-12T11:40:09.866Z,23
2018-08-12T11:45:12.257Z,22.9
2018-08-12T11:50:14.491Z,23.200001
2018-08-12T11:55:18.120Z,23.200001
2018-08-12T12:00:19.065Z,25.6
2018-08-12T12:05:21.391Z,24.700001
2018-08-12T12:10:23.718Z,22.4
2018-08-12T12:15:25.989Z,24.5
2018-08-12T12:20:28.647Z,25.700001
2018-08-12T12:25:30.496Z,24.6
2018-08-12T12:30:32.832Z,22.9
2018-08-12T12:35:35.113Z,23.799999
2018-08-12T12:40:37.487Z,24.799999
2018-08-12T12:45:39.741Z,23.6
2018-08-12T12:50:42.096Z,21.9
2018-08-12T12:55:44.379Z,23.200001
2018-08-12T13:00:46.657Z,25.1
2018-08-12T13:05:48.933Z,26.9
2018-08-12T13:10:51.143Z,24.200001
2018-08-12T13:15:53.508Z,24.299999
2018-08-12T13:20:55.675Z,23.299999
2018-08-12T13:25:58.150Z,22.4
2018-08-12T13:31:00.421Z,25.200001
2018-08-12T13:36:02.876Z,23.299999
2018-08-12T13:41:05.116Z,23.6
2018-08-12T13:46:07.306Z,22.4
2018-08-12T13:51:09.435Z,23.5
2018-08-12T13:56:11.913Z,23.6
2018-08-12T14:01:14.066Z,23.9
2018-08-12T14:06:16.462Z,24.4
2018-08-12T14:11:18.740Z,24.299999
2018-08-12T14:16:21.020Z,26.6
2018-08-12T14:21:23.371Z,24.700001
2018-08-12T14:26:25.526Z,25.200001
2018-08-12T14:31:27.901Z,24.700001
2018-08-12T14:36:30.196Z,23.9
2018-08-12T14:41:32.479Z,24.799999
2018-08-12T14:51:37.190Z,25.5
2018-08-12T14:56:40.654Z,26.799999
2018-08-12T15:01:41.757Z,28.4
2018-08-12T15:06:43.925Z,27.9
2018-08-12T15:11:46.333Z,27.299999
2018-08-12T15:16:48.504Z,25.700001
2018-08-12T15:21:50.768Z,27.200001
2018-08-12T15:26:53.116Z,28.5
2018-08-12T15:31:55.425Z,28.299999
2018-08-12T15:36:57.799Z,29.1
2018-08-12T15:42:00.034Z,29.4
2018-08-12T15:47:02.314Z,29
2018-08-12T15:52:04.553Z,29.6
2018-08-12T15:57:06.972Z,31
2018-08-12T16:02:09.266Z,32.700001
2018-08-12T16:07:11.407Z,30.6
2018-08-12T16:12:13.682Z,31.799999
2018-08-12T16:17:16.244Z,31.9
2018-08-12T16:22:18.363Z,31.6
2018-08-12T16:27:20.679Z,32.200001
2018-08-12T16:32:22.888Z,33.400002
2018-08-12T16:37:25.339Z,34.099998
2018-08-12T16:42:28.253Z,33.599998
2018-08-12T16:47:29.748Z,34
2018-08-12T16:52:32.178Z,32.299999
2018-08-12T16:57:34.491Z,34
2018-08-12T17:02:36.830Z,36
2018-08-12T17:07:38.946Z,34
2018-08-12T17:12:41.350Z,34.299999
2018-08-12T17:17:43.739Z,36.900002
2018-08-12T17:22:45.990Z,35.700001
2018-08-12T17:27:48.179Z,36.400002
2018-08-12T17:32:50.664Z,37.099998
2018-08-12T17:37:52.817Z,42.099998
2018-08-12T17:42:55.181Z,47.599998
2018-08-12T17:47:57.362Z,48.599998
2018-08-12T17:52:59.680Z,54.299999
2018-08-12T17:58:01.951Z,55.099998
2018-08-12T18:03:04.309Z,56.599998
2018-08-12T18:08:06.488Z,58.900002
2018-08-12T18:13:08.874Z,61.200001
2018-08-12T18:18:11.088Z,61.400002
2018-08-12T18:23:13.448Z,65.5
2018-08-12T18:28:15.840Z,66.400002
2018-08-12T18:33:18.003Z,66.300003
2018-08-12T18:38:20.239Z,66.099998
2018-08-12T18:43:22.656Z,65.900002
2018-08-12T18:48:24.920Z,69.099998
2018-08-12T18:53:27.177Z,68.699997
2018-08-12T18:58:29.666Z,62
2018-08-12T19:03:31.699Z,58.900002
2018-08-12T19:08:34.075Z,52.900002
2018-08-12T19:13:36.378Z,52.099998
2018-08-12T19:18:38.728Z,61
2018-08-12T19:23:41.123Z,63.599998
2018-08-12T19:28:43.292Z,68.5
2018-08-12T19:33:45.611Z,69.5
2018-08-12T19:38:47.799Z,69
2018-08-12T19:48:52.372Z,69.400002
2018-08-12T19:53:54.637Z,71.5
2018-08-12T19:58:57.180Z,72.5
2018-08-12T20:03:59.367Z,74.199997
2018-08-12T20:09:01.660Z,75.099998
2018-08-12T20:14:03.863Z,75.5
2018-08-12T20:19:06.117Z,75.400002
2018-08-12T20:24:08.540Z,75.400002
2018-08-12T20:29:10.760Z,76.599998
2018-08-12T20:34:13.097Z,75.800003
2018-08-12T20:39:15.447Z,76.5
2018-08-12T20:44:17.574Z,76.199997
2018-08-12T20:49:19.846Z,77.300003
2018-08-12T20:54:22.251Z,77.599998
2018-08-12T20:59:24.614Z,76.199997
2018-08-12T21:04:26.799Z,77
2018-08-12T21:09:29.163Z,77.199997
2018-08-12T21:14:31.397Z,76.800003
2018-08-12T21:19:33.718Z,75.599998
2018-08-12T21:24:35.934Z,75.699997
2018-08-12T21:29:39.976Z,74.599998
2018-08-12T21:34:40.691Z,74.5
2018-08-12T21:39:43.028Z,72.699997
2018-08-12T21:44:45.298Z,72.400002
2018-08-12T21:49:47.533Z,74.5
2018-08-12T21:54:49.750Z,72.800003
2018-08-12T21:59:52.071Z,73.599998
2018-08-12T22:04:54.604Z,73.900002
2018-08-12T22:09:56.723Z,74.599998
2018-08-12T22:14:59.015Z,74.599998
2018-08-12T22:20:01.169Z,75.099998
2018-08-12T22:25:03.502Z,75
2018-08-12T22:30:05.869Z,75.400002
2018-08-12T22:35:08.095Z,78.300003
2018-08-12T22:40:10.479Z,69.300003
2018-08-12T22:45:12.706Z,67.800003
2018-08-12T22:50:15.015Z,67.099998
2018-08-12T22:55:17.302Z,78.599998
2018-08-12T23:00:19.674Z,81.5
2018-08-12T23:05:22.017Z,82.5
2018-08-12T23:10:24.158Z,85.300003
2018-08-12T23:15:26.575Z,87.800003
2018-08-12T23:20:28.812Z,88.099998
2018-08-12T23:25:31.183Z,87.699997
2018-08-12T23:30:33.288Z,87.599998
2018-08-12T23:35:35.618Z,88.900002
2018-08-12T23:40:38.019Z,88.800003
2018-08-12T23:45:40.375Z,86
2018-08-12T23:50:42.599Z,81.099998
2018-08-12T23:55:44.872Z,82.099998
